Latest Weather Observations for Neptune Island

IDS60801

Issued at 9:35 pm CST Saturday 30 August 2014 (issued every 30 minutes, with the page automatically refreshed every 10 minutes)

About weather observations | Map of weather stations | Latest weather observations for SA | Other Formats
Station Details ID: 018115 Name: NEPTUNE ISLAND Lat: -35.34 Lon: 136.12 Height: 32.0 m
Data from the previous 72 hours. | See also: Recent months at Neptune Island
Date/Time
CST
Temp
°C
App
Temp
°C
Dew
Point
Rel
Hum
%
Delta-T
°C
Wind Press
QNH
hPa
Press
MSL
hPa
Rain
since 9 am
mm
Dir
 
Spd
km/h
Gust
km/h
Spd
kts
Gust
kts
30/09:30pm 16.5 10.6 11.0 70 2.9 N 33 37 18 20 1014.7 1014.7 0.0
30/09:00pm 16.3 10.5 11.5 73 2.6 N 33 37 18 20 1014.7 1014.7 0.0
30/08:30pm 16.3 10.2 11.9 75 2.4 N 35 41 19 22 1014.8 1014.8 0.0
30/08:00pm 15.9 10.5 12.1 78 2.1 N 32 37 17 20 1015.0 1015.0 0.0
30/07:30pm 15.7 10.2 11.9 78 2.1 N 32 35 17 19 1015.2 1015.2 0.0
30/07:00pm 15.8 10.3 11.8 77 2.2 NNE 32 35 17 19 1015.3 1015.3 0.0
30/06:30pm 15.9 10.4 11.7 76 2.3 NNE 32 35 17 19 1015.6 1015.5 0.0
30/06:00pm 16.0 10.5 11.8 76 2.3 NNE 32 37 17 20 1015.6 1015.5 0.0
30/05:30pm 15.9 10.7 11.7 76 2.3 NNE 30 33 16 18 1015.8 1015.7 0.0
30/05:00pm 15.9 11.9 11.9 77 2.2 NNE 24 32 13 17 1015.8 1015.7 0.0
30/04:30pm 16.0 11.2 11.8 76 2.3 NNE 28 35 15 19 1016.0 1016.0 0.0
30/04:00pm 16.7 12.0 12.0 74 2.6 NNE 28 33 15 18 1016.1 1016.1 0.0
30/03:30pm 17.3 12.7 12.2 72 2.8 NNE 28 35 15 19 1016.3 1016.3 0.0
30/03:00pm 17.5 12.8 12.0 70 3.0 NNE 28 32 15 17 1016.5 1016.5 0.0
30/02:30pm 17.7 12.4 12.4 71 2.9 NNE 32 37 17 20 1016.8 1016.8 0.0
30/02:00pm 17.2 12.4 11.5 69 3.1 NNE 28 33 15 18 1017.2 1017.2 0.0
30/01:30pm 18.4 14.7 12.6 69 3.2 N 24 28 13 15 1017.8 1017.8 0.0
30/01:00pm 18.2 14.0 12.4 69 3.2 N 26 30 14 16 1018.4 1018.4 0.0
30/12:30pm 17.4 11.8 11.4 68 3.3 N 32 37 17 20 1018.7 1018.7 0.0
30/12:00pm 17.6 12.0 11.6 68 3.3 NNE 32 35 17 19 1019.1 1019.1 0.0
30/11:30am 17.8 12.3 12.0 69 3.2 NNE 32 35 17 19 1019.4 1019.4 0.0
30/11:00am 17.5 12.7 11.8 69 3.1 N 28 32 15 17 1020.0 1020.0 0.0
30/10:30am 16.8 11.2 11.5 71 2.9 N 32 35 17 19 1020.1 1020.1 0.0
30/10:00am 17.2 11.5 11.2 68 3.2 N 32 37 17 20 1020.4 1020.4 0.0
30/09:30am 17.1 11.7 10.9 67 3.3 N 30 33 16 18 1020.6 1020.6 0.0
30/09:00am 16.5 11.6 11.2 71 2.8 N 28 32 15 17 1020.8 1020.8 0.0
30/08:30am 16.3 11.0 11.2 72 2.7 N 30 33 16 18 1021.0 1021.0 0.0
30/08:00am 15.8 10.5 9.9 68 3.1 N 28 32 15 17 1020.8 1020.8 0.0
30/07:30am 15.5 10.8 10.5 72 2.6 N 26 30 14 16 1020.5 1020.5 0.0
30/07:00am 15.2 9.8 10.8 75 2.3 N 30 32 16 17 1020.2 1020.2 0.0
30/06:30am 15.2 10.1 10.6 74 2.4 N 28 32 15 17 1020.2 1020.2 0.0
30/06:00am 15.4 10.4 11.0 75 2.3 N 28 32 15 17 1020.1 1020.1 0.0
30/05:30am 15.1 10.3 11.5 79 1.9 N 28 32 15 17 1020.1 1020.1 0.0
30/05:00am 15.1 9.6 11.7 80 1.8 N 32 33 17 18 1020.1 1020.1 0.0
30/04:30am 15.1 9.6 11.9 81 1.7 N 32 35 17 19 1020.2 1020.2 0.0
30/04:00am 15.2 9.7 11.8 80 1.8 N 32 35 17 19 1020.5 1020.5 0.0
30/03:30am 15.4 10.3 12.0 80 1.8 N 30 33 16 18 1020.8 1020.8 0.0
30/03:00am 15.4 9.9 12.0 80 1.8 N 32 35 17 19 1021.1 1021.1 0.0
30/02:30am 15.5 10.0 11.9 79 1.9 NNE 32 35 17 19 1021.4 1021.4 0.0
30/02:00am 15.5 10.8 12.1 80 1.9 NNE 28 33 15 18 1021.5 1021.5 0.0
30/01:30am 15.6 10.6 12.2 80 1.9 NNE 30 39 16 21 1021.7 1021.7 0.0
30/01:00am 15.7 10.3 12.3 80 1.9 NNE 32 41 17 22 1021.6 1021.6 0.0
30/12:30am 15.7 10.1 12.1 79 2.0 NNE 33 39 18 21 1021.7 1021.7 0.0
30/12:00am 15.6 10.2 12.2 80 1.9 NNE 32 37 17 20 1021.9 1021.9 0.0
 
Date/Time
CST
Temp
°C
App
Temp
°C
Dew
Point
Rel
Hum
%
Delta-T
°C
Wind Press
QNH
hPa
Press
MSL
hPa
Rain
since 9 am
mm
Dir
 
Spd
km/h
Gust
km/h
Spd
kts
Gust
kts
29/11:30pm 15.4 9.8 12.2 81 1.7 NNE 33 37 18 20 1022.1 1022.1 0.0
29/11:00pm 15.6 12.0 12.0 79 2.0 NNE 22 28 12 15 1022.5 1022.5 0.0
29/10:30pm 15.6 12.3 11.6 77 2.2 NNE 20 28 11 15 1022.7 1022.7 0.0
29/10:00pm 15.9 11.8 11.5 75 2.4 NNE 24 28 13 15 1022.8 1022.8 0.0
29/09:30pm 15.9 12.6 11.5 75 2.4 NNE 20 26 11 14 1022.9 1022.9 0.0
29/09:00pm 16.4 13.2 11.1 71 2.8 NNE 19 24 10 13 1023.1 1023.1 0.0
29/08:30pm 16.5 11.9 11.2 71 2.8 NNE 26 33 14 18 1023.0 1023.0 0.0
29/08:00pm 16.0 13.3 11.6 75 2.4 NNE 17 20 9 11 1023.1 1023.1 0.0
29/07:30pm 15.8 12.6 11.8 77 2.2 NE 20 26 11 14 1023.0 1023.0 0.0
29/07:00pm 15.8 12.2 12.0 78 2.1 NE 22 26 12 14 1022.8 1022.8 0.0
29/06:30pm 15.9 11.9 11.9 77 2.2 NE 24 28 13 15 1022.8 1022.8 0.0
29/06:00pm 15.9 11.6 11.9 77 2.2 NE 26 30 14 16 1022.6 1022.6 0.0
29/05:30pm 16.0 12.1 12.2 78 2.1 ENE 24 26 13 14 1022.8 1022.8 0.0
29/05:00pm 16.5 13.4 12.3 76 2.3 ENE 20 22 11 12 1022.9 1022.9 0.0
29/04:30pm 16.7 12.8 12.0 74 2.6 NE 24 28 13 15 1023.0 1023.0 0.0
29/04:00pm 16.8 13.4 12.5 76 2.4 NE 22 26 12 14 1023.3 1023.3 0.0
29/03:30pm 17.3 14.7 13.2 77 2.3 NE 19 24 10 13 1023.5 1023.5 0.0
29/03:00pm 17.8 15.7 13.5 76 2.4 NE 17 22 9 12 1023.8 1023.8 0.0
29/02:30pm 17.1 14.8 13.0 77 2.3 NNE 17 22 9 12 1023.9 1023.9 0.0
29/02:00pm 17.1 14.7 12.8 76 2.4 NNE 17 26 9 14 1024.2 1024.2 0.0
29/01:30pm 17.2 14.6 13.1 77 2.3 NNE 19 24 10 13 1024.6 1024.6 0.0
29/01:00pm 17.4 14.6 13.3 77 2.3 NNE 20 28 11 15 1025.0 1025.0 0.0
29/12:30pm 17.5 15.0 13.4 77 2.3 NNE 19 24 10 13 1025.6 1025.6 0.0
29/12:00pm 17.0 13.7 12.9 77 2.3 NNE 22 24 12 13 1026.0 1026.0 0.0
29/11:30am 17.2 13.6 13.1 77 2.3 NNE 24 30 13 16 1026.3 1026.3 0.0
29/11:00am 16.6 12.9 12.6 77 2.2 NNE 24 30 13 16 1026.3 1026.3 0.0
29/10:30am 17.2 14.1 13.5 79 2.1 NNE 22 26 12 14 1026.7 1026.7 0.0
29/10:00am 16.6 12.3 13.1 80 2.0 NNE 28 33 15 18 1026.6 1026.6 0.0
29/09:30am 16.2 13.2 12.7 80 1.9 NNE 20 30 11 16 1026.6 1026.6 0.0
29/09:00am 16.1 13.3 12.7 80 1.9 NNE 19 24 10 13 1026.8 1026.8 -
29/08:30am 15.9 12.9 12.5 80 1.9 NNE 20 28 11 15 1026.6 1026.6 -
29/08:00am 15.4 11.6 12.3 82 1.7 NNE 24 28 13 15 1026.3 1026.3 -
29/07:30am 14.9 11.4 12.2 84 1.5 N 22 26 12 14 1026.2 1026.2 -
29/07:00am 14.8 10.8 11.9 83 1.6 NNE 24 26 13 14 1025.9 1025.9 -
29/06:30am 15.0 11.8 12.0 82 1.6 NNE 20 24 11 13 1025.7 1025.7 -
29/06:00am 14.9 10.2 11.9 82 1.6 NNE 28 32 15 17 1025.3 1025.3 -
29/05:30am 14.8 9.7 11.8 82 1.6 N 30 35 16 19 1025.3 1025.3 -
29/05:00am 14.8 10.1 12.1 84 1.5 N 28 32 15 17 1025.3 1025.3 -
29/04:30am 14.8 9.7 11.9 83 1.6 NNE 30 33 16 18 1025.1 1025.1 -
29/04:00am 14.8 9.3 11.9 83 1.6 NNE 32 37 17 20 1025.0 1025.0 -
29/03:30am 15.1 - 12.1 82 1.6 - - - - - 1024.9 1024.9 -
29/03:00am 15.1 11.2 12.2 83 1.6 NNE 24 28 13 15 1025.5 1025.5 0.0
29/02:30am 15.1 12.2 12.2 83 1.6 NE 19 24 10 13 1025.8 1025.8 0.0
29/02:00am 15.2 13.5 12.5 84 1.5 NE 13 17 7 9 1026.3 1026.3 0.0
29/01:30am 15.3 12.4 12.4 83 1.6 NE 19 20 10 11 1026.4 1026.4 0.0
29/01:00am 15.2 12.6 12.1 82 1.7 NE 17 19 9 10 1026.5 1026.5 0.0
29/12:30am 15.3 12.3 12.4 83 1.6 NE 20 24 11 13 1026.4 1026.4 0.0
29/12:00am 15.5 12.1 12.6 83 1.6 ENE 22 24 12 13 1026.5 1026.5 0.0
 
Date/Time
CST
Temp
°C
App
Temp
°C
Dew
Point
Rel
Hum
%
Delta-T
°C
Wind Press
QNH
hPa
Press
MSL
hPa
Rain
since 9 am
mm
Dir
 
Spd
km/h
Gust
km/h
Spd
kts
Gust
kts
28/11:30pm 15.3 12.4 12.8 85 1.4 ENE 20 22 11 12 1026.5 1026.5 0.0
28/11:00pm 15.2 12.2 12.7 85 1.4 ENE 20 24 11 13 1026.6 1026.6 0.0
28/10:30pm 15.0 12.2 12.5 85 1.4 ENE 19 20 10 11 1026.9 1026.9 0.0
28/10:00pm 15.1 12.1 12.6 85 1.4 ENE 20 22 11 12 1026.8 1026.8 0.0
28/09:30pm 14.9 12.1 12.6 86 1.3 ENE 19 20 10 11 1027.0 1027.0 0.0
28/09:00pm 14.8 12.0 12.5 86 1.3 ENE 19 22 10 12 1027.0 1027.0 0.0
28/08:30pm 14.7 11.8 12.2 85 1.4 E 19 22 10 12 1027.0 1027.0 0.0
28/08:00pm 14.5 12.1 11.3 81 1.7 ENE 15 17 8 9 1026.9 1026.9 0.0
28/07:30pm 15.3 13.5 12.1 81 1.7 NE 13 15 7 8 1026.6 1026.6 0.0
28/07:00pm 15.2 13.8 12.3 83 1.6 NE 11 13 6 7 1026.3 1026.3 0.0
28/06:30pm 15.0 13.6 12.1 83 1.6 NNE 11 13 6 7 1026.1 1026.1 0.0
28/06:00pm 15.2 14.2 12.3 83 1.6 NNE 9 13 5 7 1026.0 1026.0 0.0
28/05:30pm 15.5 13.5 12.6 83 1.6 NE 15 17 8 9 1026.0 1026.0 0.0
28/05:00pm 15.8 13.7 12.5 81 1.8 NE 15 17 8 9 1025.7 1025.7 0.0
28/04:30pm 16.3 14.7 12.7 79 2.0 NE 13 15 7 8 1025.6 1025.6 0.0
28/04:00pm 16.5 14.9 12.7 78 2.1 NNE 13 19 7 10 1025.5 1025.5 0.0
28/03:30pm 16.7 15.1 12.7 77 2.2 NNE 13 17 7 9 1025.6 1025.6 0.0
28/03:00pm 17.2 15.6 12.7 75 2.5 NNE 13 17 7 9 1025.8 1025.8 0.0
28/02:30pm 17.4 15.8 12.9 75 2.5 NNE 13 17 7 9 1025.9 1025.9 0.0
28/02:00pm 17.2 15.6 12.9 76 2.4 NNE 13 19 7 10 1026.0 1026.0 0.0
28/01:30pm 17.6 16.1 13.1 75 2.5 NNE 13 17 7 9 1026.1 1026.1 0.0
28/01:00pm 16.9 14.0 12.2 74 2.6 NNE 19 20 10 11 1026.4 1026.4 0.0
28/12:30pm 17.8 14.6 13.1 74 2.6 NNE 22 24 12 13 1026.5 1026.5 0.0
28/12:00pm 18.0 15.2 13.1 73 2.7 NNE 20 22 11 12 1026.9 1026.9 0.0
28/11:30am 17.8 15.2 13.3 75 2.5 N 19 22 10 12 1027.1 1027.1 0.0
28/11:00am 16.8 13.7 12.3 75 2.5 NNE 20 24 11 13 1027.2 1027.2 0.0
28/10:30am 16.8 13.5 12.7 77 2.3 NNE 22 24 12 13 1027.2 1027.2 0.0
28/10:00am 16.7 13.8 12.8 78 2.2 NNE 20 24 11 13 1027.5 1027.5 0.0
28/09:30am 16.0 13.0 12.4 79 2.0 NNE 20 22 11 12 1027.6 1027.6 0.0
28/09:00am 15.8 13.4 12.5 81 1.8 NNE 17 20 9 11 1027.5 1027.5 0.0
28/08:30am 15.4 12.9 12.2 81 1.7 NNE 17 19 9 10 1027.5 1027.5 0.0
28/08:00am 15.2 12.6 12.1 82 1.7 NNE 17 20 9 11 1027.3 1027.3 0.0
28/07:30am 14.7 11.4 11.7 82 1.6 NNE 20 24 11 13 1026.7 1026.7 0.0
28/07:00am 14.5 11.3 11.3 81 1.7 NNE 19 24 10 13 1026.5 1026.5 0.0
28/06:30am 14.6 10.5 11.6 82 1.6 NNE 24 28 13 15 1026.1 1026.1 0.0
28/06:00am 14.4 10.0 11.7 84 1.4 NNE 26 30 14 16 1025.8 1025.8 0.0
28/05:30am 14.3 10.7 11.8 85 1.3 NNE 22 26 12 14 1026.0 1026.0 0.0
28/05:00am 14.3 11.1 11.8 85 1.3 NNE 20 24 11 13 1026.0 1026.0 0.0
28/04:30am 14.3 11.4 12.2 87 1.1 NNE 19 26 10 14 1025.9 1025.9 0.0
28/04:00am 14.4 11.8 12.1 86 1.2 NNE 17 22 9 12 1026.0 1026.0 0.0
28/03:30am 14.4 12.2 12.1 86 1.2 NNE 15 17 8 9 1026.2 1026.2 0.0
28/03:00am 14.3 12.5 12.0 86 1.2 NNE 13 17 7 9 1026.3 1026.3 0.0
28/02:30am 14.5 12.8 12.4 87 1.1 NE 13 17 7 9 1026.3 1026.3 0.0
28/02:00am 14.6 11.8 12.5 87 1.1 NE 19 24 10 13 1026.4 1026.4 0.0
28/01:30am 14.4 11.9 12.3 87 1.1 NE 17 20 9 11 1026.5 1026.5 0.0
28/01:00am 14.4 11.8 12.1 86 1.2 NE 17 20 9 11 1026.8 1026.8 0.0
28/12:30am 14.5 11.6 12.2 86 1.2 NE 19 22 10 12 1026.8 1026.8 0.0
28/12:00am 14.7 11.2 12.2 85 1.4 ENE 22 24 12 13 1026.9 1026.9 0.0
 
Date/Time
CST
Temp
°C
App
Temp
°C
Dew
Point
Rel
Hum
%
Delta-T
°C
Wind Press
QNH
hPa
Press
MSL
hPa
Rain
since 9 am
mm
Dir
 
Spd
km/h
Gust
km/h
Spd
kts
Gust
kts
27/11:30pm 14.6 11.3 11.7 83 1.6 ENE 20 22 11 12 1027.1 1027.1 0.0
27/11:00pm 14.7 11.4 11.7 82 1.6 ENE 20 24 11 13 1027.0 1027.0 0.0
27/10:30pm 14.6 10.9 11.4 81 1.7 ENE 22 26 12 14 1027.0 1027.0 0.0
27/10:00pm 14.6 11.2 11.2 80 1.8 ENE 20 24 11 13 1027.0 1027.0 0.0

Other Formats:

Comma delimited format used in spreadsheet applications
http://www.bom.gov.au/fwo/IDS60801/IDS60801.94804.axf

JavaScript Object Notation format (JSON) in row-major order
http://www.bom.gov.au/fwo/IDS60801/IDS60801.94804.json